createdAt,value
2022-12-05T00:00:38.501Z,33.67
2022-12-05T00:03:09.367Z,33.38
2022-12-05T00:05:40.959Z,31.13
2022-12-05T00:08:08.474Z,31.95
2022-12-05T00:10:39.660Z,30.92
2022-12-05T00:13:07.192Z,32.22
2022-12-05T00:15:41.775Z,31.40
2022-12-05T00:18:09.150Z,31.08
2022-12-05T00:20:36.494Z,29.38
2022-12-05T00:23:04.108Z,31.15
2022-12-05T00:25:37.933Z,31.48
2022-12-05T00:28:05.386Z,29.17
2022-12-05T00:30:33.166Z,29.98
2022-12-05T00:33:00.587Z,32.30
2022-12-05T00:35:28.049Z,31.42
2022-12-05T00:37:55.524Z,30.05
2022-12-05T00:40:22.788Z,28.77
2022-12-05T00:42:52.437Z,29.88
2022-12-05T00:45:20.063Z,30.23
2022-12-05T00:47:50.071Z,33.55
2022-12-05T00:50:21.045Z,29.60
2022-12-05T00:52:53.740Z,29.17
2022-12-05T00:55:21.279Z,29.42
2022-12-05T00:57:48.680Z,28.08
2022-12-05T01:00:16.319Z,29.02
2022-12-05T01:02:44.050Z,28.83
2022-12-05T01:05:15.455Z,26.63
2022-12-05T01:07:42.882Z,27.50
2022-12-05T01:16:36.129Z,29.58
2022-12-05T01:21:56.046Z,24.50
2022-12-05T01:27:07.713Z,26.90
2022-12-05T01:32:32.618Z,27.42
2022-12-05T01:34:59.796Z,27.65
2022-12-05T01:37:26.970Z,28.20
2022-12-05T01:39:54.209Z,27.70
2022-12-05T01:42:25.985Z,26.27
2022-12-05T01:45:04.905Z,27.40
2022-12-05T01:47:33.486Z,26.27
2022-12-05T01:50:01.021Z,26.58
2022-12-05T01:52:29.901Z,25.63
2022-12-05T01:54:59.483Z,27.52
2022-12-05T01:57:26.809Z,26.42
2022-12-05T01:59:56.601Z,32.17
2022-12-05T02:02:24.352Z,29.35
2022-12-05T02:05:11.774Z,27.10
2022-12-05T02:07:40.254Z,28.00
2022-12-05T02:10:08.025Z,29.98
2022-12-05T02:12:35.485Z,29.48
2022-12-05T02:15:11.055Z,26.25
2022-12-05T02:17:41.201Z,26.60
2022-12-05T02:20:14.040Z,27.45
2022-12-05T02:22:59.905Z,26.00
2022-12-05T02:25:36.316Z,28.05
2022-12-05T02:28:23.269Z,26.25
2022-12-05T02:31:05.673Z,29.60
2022-12-05T02:33:36.791Z,29.15
2022-12-05T02:36:07.408Z,28.42
2022-12-05T02:38:42.334Z,28.50
2022-12-05T02:41:30.959Z,27.48
2022-12-05T02:44:00.830Z,26.27
2022-12-05T02:46:30.024Z,31.05
2022-12-05T02:48:59.340Z,27.83
2022-12-05T02:51:28.461Z,26.30
2022-12-05T02:53:57.834Z,27.33
2022-12-05T02:56:25.770Z,30.17
2022-12-05T02:58:54.263Z,29.83
2022-12-05T03:01:24.017Z,27.77
2022-12-05T03:03:51.564Z,29.77
2022-12-05T03:06:22.798Z,31.08
2022-12-05T03:08:52.594Z,28.17
2022-12-05T03:11:20.007Z,26.10
2022-12-05T03:13:50.250Z,32.08
2022-12-05T03:16:21.198Z,32.72
2022-12-05T03:18:50.997Z,30.85
2022-12-05T03:21:37.893Z,28.63
2022-12-05T03:24:12.801Z,26.77
2022-12-05T03:26:46.094Z,28.13
2022-12-05T03:31:56.470Z,25.77
2022-12-05T03:34:49.928Z,25.45
2022-12-05T03:37:37.416Z,29.48
2022-12-05T03:40:21.866Z,27.58
2022-12-05T03:43:02.841Z,26.60
2022-12-05T03:45:34.389Z,27.63
2022-12-05T03:48:06.666Z,29.50
2022-12-05T03:50:35.998Z,28.13
2022-12-05T03:53:21.584Z,26.60
2022-12-05T03:55:51.854Z,27.42
2022-12-05T03:58:22.145Z,27.48
2022-12-05T04:00:51.559Z,26.95
2022-12-05T04:03:22.216Z,28.30
2022-12-05T04:05:51.725Z,26.92
2022-12-05T04:08:21.260Z,24.13
2022-12-05T04:10:50.290Z,25.38
2022-12-05T04:13:28.099Z,23.70
2022-12-05T04:16:16.609Z,24.65
2022-12-05T04:18:51.954Z,23.45
2022-12-05T04:21:38.761Z,24.10
2022-12-05T04:24:28.813Z,24.13
2022-12-05T04:27:05.004Z,26.02
2022-12-05T04:29:33.605Z,22.17
2022-12-05T04:32:04.267Z,23.13
2022-12-05T04:34:32.035Z,23.45
2022-12-05T04:37:06.731Z,23.80
2022-12-05T04:39:55.765Z,24.25
2022-12-05T04:42:26.570Z,23.25
2022-12-05T04:44:55.789Z,24.13
2022-12-05T04:47:25.426Z,22.65
2022-12-05T04:49:54.090Z,22.50
2022-12-05T04:52:22.068Z,24.45
2022-12-05T04:54:51.818Z,22.50
2022-12-05T04:57:29.256Z,30.45
2022-12-05T04:59:56.816Z,26.40
2022-12-05T05:02:34.241Z,30.67
2022-12-05T05:05:03.112Z,29.85
2022-12-05T05:07:30.346Z,25.98
2022-12-05T05:09:58.214Z,24.05
2022-12-05T05:12:25.641Z,25.27
2022-12-05T05:14:52.846Z,22.52
2022-12-05T05:17:20.023Z,21.52
2022-12-05T05:19:49.841Z,19.65
2022-12-05T05:22:17.005Z,20.00
2022-12-05T05:24:44.146Z,19.33
2022-12-05T05:27:11.340Z,20.33
2022-12-05T05:29:38.545Z,21.23
2022-12-05T05:32:05.758Z,20.77
2022-12-05T05:34:32.924Z,19.65
2022-12-05T05:37:00.157Z,19.92
2022-12-05T05:39:29.469Z,19.88
2022-12-05T05:41:56.655Z,20.08
2022-12-05T05:44:23.814Z,18.85
2022-12-05T05:46:51.047Z,18.42
2022-12-05T05:49:18.278Z,20.70
2022-12-05T05:51:45.549Z,26.02
2022-12-05T05:54:12.715Z,25.83
2022-12-05T05:56:40.765Z,23.00
2022-12-05T05:59:07.915Z,23.33
2022-12-05T06:01:35.116Z,25.10
2022-12-05T06:04:02.501Z,23.85
2022-12-05T06:06:29.822Z,24.45
2022-12-05T06:08:57.115Z,25.38
2022-12-05T06:11:26.758Z,23.75
2022-12-05T06:13:56.009Z,24.95
2022-12-05T06:16:23.927Z,25.40
2022-12-05T06:18:52.272Z,22.98
2022-12-05T06:21:19.448Z,22.10
2022-12-05T06:23:46.784Z,27.48
2022-12-05T06:26:15.192Z,25.80
2022-12-05T06:28:42.656Z,43.15
2022-12-05T06:31:10.603Z,30.17
2022-12-05T06:33:37.880Z,24.98
2022-12-05T06:36:06.973Z,28.00
2022-12-05T06:38:36.899Z,22.48
2022-12-05T06:41:08.618Z,22.38
2022-12-05T06:43:35.847Z,21.90
2022-12-05T06:46:06.833Z,23.83
2022-12-05T06:48:34.031Z,21.40
2022-12-05T06:51:01.283Z,25.73
2022-12-05T06:53:28.556Z,22.48
2022-12-05T06:55:59.759Z,29.73
2022-12-05T06:58:26.967Z,22.60
2022-12-05T07:01:12.690Z,22.55
2022-12-05T07:03:39.947Z,24.05
2022-12-05T07:06:08.260Z,22.33
2022-12-05T07:08:35.402Z,21.65
2022-12-05T07:11:03.630Z,23.98
2022-12-05T07:13:30.888Z,23.02
2022-12-05T07:15:59.083Z,21.25
2022-12-05T07:18:26.954Z,21.58
2022-12-05T07:21:11.850Z,20.67
2022-12-05T07:23:40.053Z,22.05
2022-12-05T07:26:11.986Z,24.48
2022-12-05T07:28:39.396Z,21.83
2022-12-05T07:31:08.384Z,23.15
2022-12-05T07:33:35.715Z,26.23
2022-12-05T07:36:03.469Z,22.02
2022-12-05T07:38:30.746Z,23.65
2022-12-05T07:40:58.038Z,22.15
2022-12-05T07:43:25.521Z,23.33
2022-12-05T07:45:52.802Z,27.20
2022-12-05T07:48:20.091Z,25.85
2022-12-05T07:50:47.301Z,27.52
2022-12-05T07:53:14.518Z,23.23
2022-12-05T07:55:42.066Z,26.98
2022-12-05T07:58:09.270Z,24.15
2022-12-05T08:00:36.473Z,25.33
2022-12-05T08:03:04.003Z,24.42
2022-12-05T08:05:31.146Z,23.42
2022-12-05T08:07:58.437Z,22.67
2022-12-05T08:10:26.259Z,22.40
2022-12-05T08:12:53.491Z,21.15
2022-12-05T08:15:20.713Z,20.27
2022-12-05T08:17:47.875Z,20.30
2022-12-05T08:20:15.283Z,19.63
2022-12-05T08:22:42.512Z,20.40
2022-12-05T08:25:09.944Z,21.45
2022-12-05T08:27:37.164Z,19.52
2022-12-05T08:30:04.775Z,18.45
2022-12-05T08:32:32.047Z,18.45
2022-12-05T08:34:59.206Z,17.27
2022-12-05T08:37:26.421Z,17.95
2022-12-05T08:39:53.552Z,16.98
2022-12-05T08:42:22.814Z,17.45
2022-12-05T08:44:51.405Z,17.73
2022-12-05T08:47:19.035Z,17.70
2022-12-05T08:49:46.220Z,21.00
2022-12-05T08:52:13.454Z,31.75
2022-12-05T08:54:40.730Z,25.38
2022-12-05T08:57:07.930Z,20.13
2022-12-05T08:59:35.168Z,18.15
2022-12-05T09:02:02.386Z,16.98
2022-12-05T09:04:29.566Z,16.58
2022-12-05T09:06:56.734Z,16.70
2022-12-05T09:09:23.887Z,16.48
2022-12-05T09:11:51.208Z,16.98
2022-12-05T09:14:18.718Z,17.10
2022-12-05T09:16:47.414Z,18.65
2022-12-05T09:19:15.982Z,18.33
2022-12-05T09:21:43.672Z,18.48
2022-12-05T09:24:12.008Z,15.45
2022-12-05T09:26:39.949Z,16.48
2022-12-05T09:29:08.957Z,13.82
2022-12-05T09:31:43.073Z,13.48
2022-12-05T09:34:10.817Z,13.15
2022-12-05T09:36:38.011Z,12.40
2022-12-05T09:39:06.263Z,11.73
2022-12-05T09:42:10.711Z,12.85
2022-12-05T09:44:42.060Z,11.05
2022-12-05T09:47:18.476Z,11.68
2022-12-05T09:49:51.718Z,11.68
2022-12-05T09:52:24.557Z,11.23
2022-12-05T09:54:53.466Z,12.23
2022-12-05T09:57:30.418Z,11.07
2022-12-05T10:00:01.977Z,11.23
2022-12-05T10:02:49.463Z,11.50
2022-12-05T10:05:32.392Z,11.65
2022-12-05T10:08:05.538Z,11.25
2022-12-05T10:10:47.937Z,12.02
2022-12-05T10:13:34.003Z,11.70
2022-12-05T10:16:04.091Z,11.55
2022-12-05T10:18:42.510Z,11.68
2022-12-05T10:21:10.160Z,12.15
2022-12-05T10:23:57.518Z,11.10
2022-12-05T10:26:27.970Z,10.20
2022-12-05T10:28:58.815Z,9.90
2022-12-05T10:31:31.712Z,10.82
2022-12-05T10:34:11.603Z,9.52
2022-12-05T10:36:38.819Z,8.90
2022-12-05T10:39:11.256Z,9.65
2022-12-05T10:41:38.736Z,10.98
2022-12-05T10:44:06.084Z,11.27
2022-12-05T10:46:33.345Z,12.05
2022-12-05T10:49:00.807Z,9.98
2022-12-05T10:51:35.659Z,10.13
2022-12-05T10:54:14.324Z,11.02
2022-12-05T10:56:41.653Z,11.10
2022-12-05T10:59:10.355Z,10.05
2022-12-05T11:01:38.977Z,10.18
2022-12-05T11:04:13.870Z,9.13
2022-12-05T11:06:49.619Z,9.43
2022-12-05T11:09:19.018Z,8.77
2022-12-05T11:11:58.282Z,9.75
2022-12-05T11:14:27.251Z,10.35
2022-12-05T11:16:55.988Z,12.80
2022-12-05T11:19:23.305Z,11.55
2022-12-05T11:21:51.076Z,11.68
2022-12-05T11:24:32.187Z,12.52
2022-12-05T11:27:00.940Z,10.60
2022-12-05T11:29:30.956Z,11.80
2022-12-05T11:31:58.424Z,11.35
2022-12-05T11:34:28.989Z,10.85
2022-12-05T11:37:02.578Z,11.15
2022-12-05T11:39:29.783Z,10.68
2022-12-05T11:41:59.741Z,13.18
2022-12-05T11:44:44.969Z,12.30
2022-12-05T11:47:30.734Z,11.63
2022-12-05T11:50:10.176Z,11.77
2022-12-05T11:52:49.445Z,12.55
2022-12-05T11:55:22.938Z,12.23
2022-12-05T11:57:56.315Z,12.23
2022-12-05T12:00:25.826Z,10.77
2022-12-05T12:02:56.174Z,10.68
2022-12-05T12:05:42.226Z,9.18
2022-12-05T12:08:18.599Z,9.98
2022-12-05T12:10:56.975Z,9.20
2022-12-05T12:13:44.306Z,9.18
2022-12-05T12:16:16.405Z,8.45
2022-12-05T12:18:43.561Z,9.40
2022-12-05T12:21:23.972Z,12.57
2022-12-05T12:24:00.427Z,10.15
2022-12-05T12:26:39.994Z,9.13
2022-12-05T12:29:21.903Z,9.43
2022-12-05T12:31:59.161Z,7.85
2022-12-05T12:34:35.614Z,10.23
2022-12-05T12:37:03.027Z,8.00
2022-12-05T12:39:50.523Z,14.48
2022-12-05T12:42:20.667Z,9.20
2022-12-05T12:44:53.756Z,8.50
2022-12-05T12:47:21.062Z,6.50
2022-12-05T12:49:54.230Z,7.22
2022-12-05T12:52:25.631Z,6.88
2022-12-05T12:55:08.009Z,9.52
2022-12-05T12:57:46.674Z,9.85
2022-12-05T13:00:32.406Z,8.85
2022-12-05T13:03:09.359Z,8.50
2022-12-05T13:05:36.473Z,9.13
2022-12-05T13:08:03.746Z,7.93
2022-12-05T13:10:38.031Z,7.75
2022-12-05T13:13:07.182Z,6.20
2022-12-05T13:15:37.388Z,7.28
2022-12-05T13:18:05.344Z,7.90
2022-12-05T13:20:34.697Z,7.18
2022-12-05T13:23:07.718Z,9.25
2022-12-05T13:28:04.871Z,6.63
2022-12-05T13:30:33.534Z,6.50
2022-12-05T13:33:04.751Z,5.53
2022-12-05T13:35:50.597Z,4.57
2022-12-05T13:38:47.031Z,4.47
2022-12-05T13:41:33.446Z,4.40
2022-12-05T13:44:06.679Z,3.45
2022-12-05T13:46:35.337Z,3.22
2022-12-05T13:49:07.145Z,3.88
2022-12-05T13:51:37.652Z,3.92
2022-12-05T13:54:08.188Z,3.67
2022-12-05T13:56:50.122Z,3.85
2022-12-05T13:59:36.884Z,4.22
2022-12-05T14:02:24.239Z,4.03
2022-12-05T14:04:51.701Z,3.92
2022-12-05T14:07:37.708Z,4.20
2022-12-05T14:10:05.243Z,4.00
2022-12-05T14:12:46.624Z,4.82
2022-12-05T14:15:27.123Z,4.43
2022-12-05T14:18:17.377Z,4.70
2022-12-05T14:21:05.900Z,4.65
2022-12-05T14:23:45.484Z,5.90
2022-12-05T14:26:21.095Z,5.97
2022-12-05T14:28:54.094Z,6.32
2022-12-05T14:31:27.892Z,5.30
2022-12-05T14:34:16.176Z,5.78
2022-12-05T14:36:56.852Z,5.10
2022-12-05T14:39:31.369Z,5.15
2022-12-05T14:41:59.868Z,6.07
2022-12-05T14:44:32.078Z,5.60
2022-12-05T14:47:05.680Z,5.57
2022-12-05T14:49:51.754Z,5.65
2022-12-05T14:52:22.613Z,6.63
2022-12-05T14:54:51.964Z,6.40
2022-12-05T14:57:20.382Z,7.35
2022-12-05T14:59:52.670Z,7.05
2022-12-05T15:02:23.098Z,7.90
2022-12-05T15:04:56.927Z,7.22
2022-12-05T15:07:29.034Z,6.75
2022-12-05T15:09:58.431Z,6.78
2022-12-05T15:12:25.819Z,7.05
2022-12-05T15:15:05.277Z,7.75
2022-12-05T15:17:38.760Z,7.40
2022-12-05T15:22:36.386Z,7.65
2022-12-05T15:25:16.989Z,7.65
2022-12-05T15:27:52.411Z,7.63
2022-12-05T15:30:19.815Z,8.38
2022-12-05T15:32:47.351Z,8.45
2022-12-05T15:35:15.722Z,8.38
2022-12-05T15:37:58.374Z,8.60
2022-12-05T15:40:26.249Z,9.40
2022-12-05T15:42:54.711Z,10.77
2022-12-05T15:45:23.874Z,28.90
2022-12-05T15:47:52.673Z,20.45
2022-12-05T15:50:29.073Z,15.77
2022-12-05T15:52:56.559Z,18.80
2022-12-05T15:55:30.866Z,19.23
2022-12-05T15:58:08.126Z,16.05
2022-12-05T16:00:39.617Z,13.05
2022-12-05T16:03:07.119Z,9.88
2022-12-05T16:05:42.765Z,9.25
2022-12-05T16:08:10.374Z,8.95
2022-12-05T16:10:37.730Z,9.65
2022-12-05T16:13:06.707Z,9.05
2022-12-05T16:15:34.580Z,8.60
2022-12-05T16:18:03.402Z,9.68
2022-12-05T16:20:32.949Z,10.43
2022-12-05T16:23:05.332Z,8.90
2022-12-05T16:25:36.749Z,9.20
2022-12-05T16:28:15.509Z,9.82
2022-12-05T16:30:53.776Z,9.40
2022-12-05T16:33:21.285Z,9.18
2022-12-05T16:35:50.453Z,9.30
2022-12-05T16:38:17.822Z,9.45
2022-12-05T16:40:52.213Z,9.40
2022-12-05T16:43:27.618Z,9.15
2022-12-05T16:45:56.362Z,9.80
2022-12-05T16:48:23.697Z,8.98
2022-12-05T16:50:54.818Z,9.15
2022-12-05T16:53:28.391Z,9.00
2022-12-05T16:55:55.656Z,10.23
2022-12-05T16:58:24.674Z,8.68
2022-12-05T17:00:52.257Z,11.35
2022-12-05T17:03:34.475Z,10.23
2022-12-05T17:06:02.342Z,12.03
2022-12-05T17:08:29.602Z,11.93
2022-12-05T17:10:56.795Z,11.70
2022-12-05T17:13:24.589Z,12.93
2022-12-05T17:15:51.847Z,13.20
2022-12-05T17:18:28.017Z,13.82
2022-12-05T17:20:59.627Z,14.63
2022-12-05T17:23:27.349Z,12.50
2022-12-05T17:25:55.739Z,17.95
2022-12-05T17:28:23.279Z,17.23
2022-12-05T17:30:50.998Z,17.63
2022-12-05T17:33:19.346Z,22.20
2022-12-05T17:35:47.011Z,15.38
2022-12-05T17:38:14.424Z,13.60
2022-12-05T17:40:42.148Z,13.45
2022-12-05T17:43:12.651Z,13.77
2022-12-05T17:45:39.932Z,13.32
2022-12-05T17:48:07.106Z,14.80
2022-12-05T17:50:34.335Z,12.65
2022-12-05T17:53:07.304Z,15.70
2022-12-05T17:55:34.849Z,14.10
2022-12-05T17:58:02.058Z,16.23
2022-12-05T18:00:29.336Z,15.18
2022-12-05T18:02:56.786Z,14.52
2022-12-05T18:05:24.232Z,16.40
2022-12-05T18:07:51.591Z,17.13
2022-12-05T18:10:21.023Z,12.45
2022-12-05T18:12:49.088Z,15.23
2022-12-05T18:15:16.724Z,13.93
2022-12-05T18:17:44.212Z,20.58
2022-12-05T18:20:12.674Z,15.32
2022-12-05T18:22:40.023Z,20.27
2022-12-05T18:25:07.449Z,17.13
2022-12-05T18:27:35.595Z,16.20
2022-12-05T18:30:03.691Z,14.38
2022-12-05T18:32:30.997Z,15.68
2022-12-05T18:34:59.209Z,14.85
2022-12-05T18:37:28.195Z,14.80
2022-12-05T18:39:56.576Z,15.30
2022-12-05T18:42:24.102Z,14.57
2022-12-05T18:44:52.478Z,15.05
2022-12-05T18:47:20.351Z,24.63
2022-12-05T18:49:47.597Z,24.73
2022-12-05T18:52:14.816Z,27.55
2022-12-05T18:54:42.054Z,22.45
2022-12-05T18:57:09.223Z,22.05
2022-12-05T18:59:36.458Z,24.60
2022-12-05T19:02:05.367Z,24.17
2022-12-05T19:04:32.733Z,22.95
2022-12-05T19:07:01.923Z,19.65
2022-12-05T19:09:30.665Z,18.52
2022-12-05T19:11:59.563Z,23.60
2022-12-05T19:14:27.703Z,18.23
2022-12-05T19:16:59.993Z,14.70
2022-12-05T19:19:28.290Z,15.65
2022-12-05T19:21:55.743Z,16.85
2022-12-05T19:24:23.025Z,18.05
2022-12-05T19:26:50.323Z,19.85
2022-12-05T19:29:18.108Z,17.42
2022-12-05T19:31:45.676Z,15.60
2022-12-05T19:34:12.991Z,12.20
2022-12-05T19:36:41.735Z,11.65
2022-12-05T19:39:11.082Z,12.13
2022-12-05T19:41:38.366Z,12.32
2022-12-05T19:44:05.893Z,12.32
2022-12-05T19:46:33.767Z,13.15
2022-12-05T19:49:03.006Z,13.02
2022-12-05T19:51:33.974Z,10.90
2022-12-05T19:54:01.820Z,9.63
2022-12-05T19:56:30.709Z,11.27
2022-12-05T19:58:59.495Z,11.43
2022-12-05T20:01:31.492Z,15.90
2022-12-05T20:03:59.907Z,13.30
2022-12-05T20:06:30.744Z,12.10
2022-12-05T20:08:59.101Z,12.60
2022-12-05T20:11:26.516Z,12.02
2022-12-05T20:13:54.881Z,13.85
2022-12-05T20:16:23.396Z,12.55
2022-12-05T20:18:51.071Z,15.60
2022-12-05T20:21:20.415Z,22.33
2022-12-05T20:23:47.919Z,16.92
2022-12-05T20:26:22.832Z,16.27
2022-12-05T20:28:50.456Z,10.13
2022-12-05T20:31:19.537Z,11.07
2022-12-05T20:33:47.179Z,11.20
2022-12-05T20:36:16.060Z,11.73
2022-12-05T20:38:43.600Z,13.40
2022-12-05T20:41:12.294Z,12.95
2022-12-05T20:43:39.588Z,15.55
2022-12-05T20:46:08.693Z,14.50
2022-12-05T20:48:36.854Z,12.80
2022-12-05T20:51:06.132Z,13.25
2022-12-05T20:53:35.107Z,17.67
2022-12-05T20:56:06.198Z,16.30
2022-12-05T20:58:33.633Z,12.02
2022-12-05T21:01:01.983Z,11.50
2022-12-05T21:03:29.303Z,11.98
2022-12-05T21:05:56.926Z,13.20
2022-12-05T21:08:24.709Z,12.40
2022-12-05T21:10:53.165Z,12.30
2022-12-05T21:13:20.629Z,12.65
2022-12-05T21:15:48.357Z,12.20
2022-12-05T21:18:15.702Z,12.77
2022-12-05T21:20:42.885Z,12.68
2022-12-05T21:23:11.182Z,11.75
2022-12-05T21:25:38.588Z,10.82
2022-12-05T21:28:06.659Z,10.70
2022-12-05T21:30:35.242Z,11.70
2022-12-05T21:33:05.477Z,12.27
2022-12-05T21:35:32.754Z,15.73
2022-12-05T21:38:01.278Z,13.32
2022-12-05T21:40:29.580Z,13.43
2022-12-05T21:42:56.874Z,18.02
2022-12-05T21:45:24.117Z,11.95
2022-12-05T21:47:51.798Z,16.70
2022-12-05T21:50:19.115Z,13.63
2022-12-05T21:52:46.368Z,13.75
2022-12-05T21:55:13.610Z,15.45
2022-12-05T21:57:40.958Z,14.82
2022-12-05T22:00:08.920Z,12.35
2022-12-05T22:02:36.490Z,11.85
2022-12-05T22:05:04.144Z,12.32
2022-12-05T22:07:31.422Z,13.48
2022-12-05T22:09:59.046Z,15.55
2022-12-05T22:12:26.577Z,13.88
2022-12-05T22:14:53.801Z,13.43
2022-12-05T22:17:21.068Z,12.73
2022-12-05T22:19:48.277Z,14.23
2022-12-05T22:22:15.870Z,14.02
2022-12-05T22:24:43.053Z,13.40
2022-12-05T22:27:10.403Z,14.65
2022-12-05T22:29:37.736Z,15.52
2022-12-05T22:32:05.187Z,14.73
2022-12-05T22:34:32.529Z,15.40
2022-12-05T22:36:59.898Z,15.57
2022-12-05T22:39:27.574Z,15.43
2022-12-05T22:41:54.801Z,14.80
2022-12-05T22:44:22.109Z,14.63
2022-12-05T22:46:49.400Z,14.05
2022-12-05T22:49:19.948Z,14.50
2022-12-05T22:51:49.538Z,11.57
2022-12-05T22:54:16.790Z,15.65
2022-12-05T22:56:44.015Z,14.02
2022-12-05T22:59:14.738Z,13.55
2022-12-05T23:01:42.289Z,12.02
2022-12-05T23:04:13.131Z,12.50
2022-12-05T23:06:43.052Z,14.13
2022-12-05T23:09:11.019Z,14.20
2022-12-05T23:11:39.944Z,11.23
2022-12-05T23:14:07.326Z,17.35
2022-12-05T23:16:35.081Z,14.25
2022-12-05T23:19:03.817Z,12.65
2022-12-05T23:21:36.531Z,11.32
2022-12-05T23:24:04.922Z,11.07
2022-12-05T23:26:36.496Z,11.52
2022-12-05T23:29:04.511Z,11.38
2022-12-05T23:31:31.973Z,11.70
2022-12-05T23:34:03.141Z,11.43
2022-12-05T23:36:31.425Z,9.25
2022-12-05T23:38:58.736Z,10.27
2022-12-05T23:41:26.387Z,9.10
2022-12-05T23:43:54.179Z,10.80
2022-12-05T23:46:23.498Z,11.77
2022-12-05T23:48:51.357Z,11.52
2022-12-05T23:51:20.058Z,12.32
2022-12-05T23:53:48.290Z,10.32
2022-12-05T23:56:17.066Z,9.88
2022-12-05T23:58:44.811Z,8.65
